Salvador de Bahía, Brasil

5:59 AM BRT en Mayo 04, 2015 (GMT -0300)
DEP. L. E. Magalhaes International | | Change Station
CLOSE
Current Station
Aeropuerto
Location: Salvador Airport,
Altura: 20 ft
Estaciones meteorológicas cercanas

Alt 20 ft 12.91 °S, 38.33 °W | Updated 59 minutes ago

Mostly Cloudy
Muy nublado
73 ° F
Sensación térmica 73 ° F
N
8
Viento Variable Viento desde Oeste

Hoy
Alta -- | Baja -- ° F
--% Posibilidad de precipitaciones
Ayer
Alta -- | Baja -- ° F
Precip. -- pul
5:42 AM 5:19 PM
Luna llena, 100% visible
Presión 29.95 pul
Visibilidad 6.2 Millas
Nubes Nubes dispersas 1500 ft
Baja 2000 ft
Muy nublado 7000 ft
Punto de rocío 72 ° F
Humedad 94%
Precipitaciones 0.00 pul
Espesor de la nieve No disponible.
UV 0 de una escala de 12
Polen No disponible.
Calidad del aire No disponible.
Flu Activity No disponible.
METAR SBSV 040800Z 27007KT 9999 SCT015 FEW020TCU BKN070 23/22 Q1014

More Conditions Fewer Conditions

Presión 29.95 pul
Visibilidad 6.2 Millas
Nubes Nubes dispersas 1500 ft
Baja 2000 ft
Muy nublado 7000 ft
Punto de rocío 72 ° F
Humedad 94%
Precipitaciones 0.00 pul
Espesor de la nieve No disponible.
UV 0 de una escala de 12
Polen No disponible.
Calidad del aire No disponible.
Flu Activity No disponible.
METAR SBSV 040800Z 27007KT 9999 SCT015 FEW020TCU BKN070 23/22 Q1014

More Conditions Fewer Conditions

10-Day Weather Forecast

Almanac

Astronomía

May. 04, 2015 Salida Puesta
Hora real
Crepúsculo civil
Crepúsculo náutico
Crepúsculo astronómico
Luna
Horas de luz
Horas de luz
Tomorrow will be .
, % of the Moon is Illuminated

Extremos de hoy

Máximos del país Bajas del país

Community

WunderPhotos

Upload Photos

1,818,548 ¡fotos cargadas!

WunderBlogs® & News

Nearby

Calidad del aire

  Calidad del aire Índice AQ Contaminante
Not available.

Grosos de nieve

Estación Profundido Altura

Actividad de terremotos

Ciudad Distance Mag. Tiempo y dato
Magnitud mínima muestra es 2,5.

Temperaturas de aguas costeras

Lugar Temperatura

Stations

Estaciones meteorológicas cercanas

Ubicación de la estación Temp. Vientos helados Punto de rocío Humedad Viento Precip. Alt Actualizado Tipo